AGROMETEOROLOŠKI PORTAL

Vinorodna pokrajina

Temelj dobrega kmetovanja.

Pregled podatkov za lokacijo MARINČA VAS - ARSO, meteorološka postaja 160

Pregled senzorjev na lokaciji

ID Ime Zadnja
vrednost
Datum in čas
meritve
(lokalni čas)
Tip
senzorja
5966 Padavine (mm) 0 mm 3.10.2023 16:00 ARSO
5968 Relativna zračna vlaga (2 m) (% RH) 49 % RH 3.10.2023 16:00 ARSO
5967 Temperatura (2 m) (°C) 26,1 °C 3.10.2023 16:00 ARSO

Pregled podatkov zadnjih 24 ur

Zap.
št.
Datum in čas
(lokalni čas)
MARINČA VAS - ARSO
Padavine Relativna
zračna
vlaga
(2
m)
Temperatura
(2
m)
1 3.10.2023 16:00 0 48,7 26,1
2 3.10.2023 15:30 0 47,3 26,3
3 3.10.2023 15:00 0 47,7 26,4
4 3.10.2023 14:30 0 48,3 26
5 3.10.2023 14:00 0 51 26,1
6 3.10.2023 13:30 0 55,3 25,4
7 3.10.2023 13:00 0 60,3 24,5
8 3.10.2023 12:30 0 68 23,4
9 3.10.2023 12:00 0 73,3 21,9
10 3.10.2023 11:30 0 78,7 20,3
11 3.10.2023 11:00 0 83 18,7
12 3.10.2023 10:30 0 90 16,7
13 3.10.2023 10:00 0 94 15,2
14 3.10.2023 09:30 0 98 13,6
15 3.10.2023 09:00 0 98 13
16 3.10.2023 08:30 0 98 12,7
17 3.10.2023 08:00 0 98 12,3
18 3.10.2023 07:30 0 98 11,9
19 3.10.2023 07:00 0 98 11,7
20 3.10.2023 06:30 0 98 11,6
21 3.10.2023 06:00 0 98 11,5
22 3.10.2023 05:30 0 98 11,5
23 3.10.2023 05:00 0 98 11,6
24 3.10.2023 04:30 0 97,7 11,7
25 3.10.2023 04:00 0 98 12,2
26 3.10.2023 03:30 0,1 97,7 12,6
27 3.10.2023 03:00 0 98 12,7
28 3.10.2023 02:30 0 98 12,9
29 3.10.2023 02:00 0 98 13,1
30 3.10.2023 01:30 0 98 13,1
31 3.10.2023 01:00 0 97,7 13,2
32 3.10.2023 00:30 0 98 13,3
33 3.10.2023 00:00 0 97,7 13,3
34 2.10.2023 23:30 0 97,3 13,4
35 2.10.2023 23:00 0 97 13,1
36 2.10.2023 22:30 0 97,3 13,4
37 2.10.2023 22:00 0 97,3 13,3
38 2.10.2023 21:30 0 97 13,3
39 2.10.2023 21:00 0 96,3 13,4
40 2.10.2023 20:30 0 95,7 14
41 2.10.2023 20:00 0 94 14,8
42 2.10.2023 19:30 0 92,7 16,1
43 2.10.2023 19:00 0 88,3 17,7
44 2.10.2023 18:30 0 83 19,9
45 2.10.2023 18:00 0 75,7 22,2